sensor_id;sensor_type;location;lat;lon;timestamp;P1;durP1;ratioP1;P2;durP2;ratioP2
21771;SDS011;11047;47.904;8.110;2023-06-14T00:01:02;6.22;;;3.17;;
21771;SDS011;11047;47.904;8.110;2023-06-14T00:03:31;5.35;;;2.92;;
21771;SDS011;11047;47.904;8.110;2023-06-14T00:05:58;4.78;;;3.05;;
21771;SDS011;11047;47.904;8.110;2023-06-14T00:08:25;5.57;;;3.03;;
21771;SDS011;11047;47.904;8.110;2023-06-14T00:10:53;4.97;;;3.00;;
21771;SDS011;11047;47.904;8.110;2023-06-14T00:13:20;3.95;;;3.00;;
21771;SDS011;11047;47.904;8.110;2023-06-14T00:15:47;3.78;;;3.00;;
21771;SDS011;11047;47.904;8.110;2023-06-14T00:18:14;3.67;;;3.08;;
21771;SDS011;11047;47.904;8.110;2023-06-14T00:20:41;4.45;;;3.22;;
21771;SDS011;11047;47.904;8.110;2023-06-14T00:23:08;5.10;;;3.10;;
21771;SDS011;11047;47.904;8.110;2023-06-14T00:25:35;5.13;;;2.92;;
21771;SDS011;11047;47.904;8.110;2023-06-14T00:28:03;7.25;;;3.17;;
21771;SDS011;11047;47.904;8.110;2023-06-14T00:30:30;7.03;;;3.58;;
21771;SDS011;11047;47.904;8.110;2023-06-14T00:32:57;6.47;;;3.60;;
21771;SDS011;11047;47.904;8.110;2023-06-14T00:35:24;4.45;;;3.53;;
21771;SDS011;11047;47.904;8.110;2023-06-14T00:37:51;6.20;;;3.50;;
21771;SDS011;11047;47.904;8.110;2023-06-14T00:40:19;5.13;;;3.50;;
21771;SDS011;11047;47.904;8.110;2023-06-14T00:42:46;7.20;;;3.75;;
21771;SDS011;11047;47.904;8.110;2023-06-14T00:45:15;5.28;;;3.40;;
21771;SDS011;11047;47.904;8.110;2023-06-14T00:47:42;3.25;;;2.80;;
21771;SDS011;11047;47.904;8.110;2023-06-14T00:50:12;4.20;;;2.80;;
21771;SDS011;11047;47.904;8.110;2023-06-14T00:52:39;7.18;;;3.22;;
21771;SDS011;11047;47.904;8.110;2023-06-14T00:55:06;3.28;;;2.63;;
21771;SDS011;11047;47.904;8.110;2023-06-14T00:57:33;6.47;;;3.40;;
21771;SDS011;11047;47.904;8.110;2023-06-14T01:00:02;4.10;;;3.00;;
21771;SDS011;11047;47.904;8.110;2023-06-14T01:02:36;5.82;;;3.58;;
21771;SDS011;11047;47.904;8.110;2023-06-14T01:05:03;5.90;;;3.67;;
21771;SDS011;11047;47.904;8.110;2023-06-14T01:07:33;11.25;;;4.55;;
21771;SDS011;11047;47.904;8.110;2023-06-14T01:10:12;6.55;;;4.57;;
21771;SDS011;11047;47.904;8.110;2023-06-14T01:12:48;12.52;;;5.20;;
21771;SDS011;11047;47.904;8.110;2023-06-14T01:15:19;8.25;;;4.50;;
21771;SDS011;11047;47.904;8.110;2023-06-14T01:17:49;15.02;;;6.30;;
21771;SDS011;11047;47.904;8.110;2023-06-14T01:20:16;18.00;;;7.38;;
21771;SDS011;11047;47.904;8.110;2023-06-14T01:22:50;17.35;;;7.80;;
21771;SDS011;11047;47.904;8.110;2023-06-14T01:25:17;16.33;;;7.53;;
21771;SDS011;11047;47.904;8.110;2023-06-14T01:27:46;20.63;;;9.80;;
21771;SDS011;11047;47.904;8.110;2023-06-14T01:30:14;19.95;;;7.93;;
21771;SDS011;11047;47.904;8.110;2023-06-14T01:32:42;18.35;;;8.23;;
21771;SDS011;11047;47.904;8.110;2023-06-14T01:35:09;22.80;;;10.70;;
21771;SDS011;11047;47.904;8.110;2023-06-14T01:37:36;26.80;;;10.55;;
21771;SDS011;11047;47.904;8.110;2023-06-14T01:40:06;22.05;;;10.73;;
21771;SDS011;11047;47.904;8.110;2023-06-14T01:42:35;20.42;;;9.27;;
21771;SDS011;11047;47.904;8.110;2023-06-14T01:45:05;17.58;;;7.47;;
21771;SDS011;11047;47.904;8.110;2023-06-14T01:47:33;11.20;;;7.05;;
21771;SDS011;11047;47.904;8.110;2023-06-14T01:50:01;19.98;;;8.77;;
21771;SDS011;11047;47.904;8.110;2023-06-14T01:52:28;14.43;;;8.38;;
21771;SDS011;11047;47.904;8.110;2023-06-14T01:54:55;33.20;;;15.30;;
21771;SDS011;11047;47.904;8.110;2023-06-14T01:57:24;21.65;;;11.45;;
21771;SDS011;11047;47.904;8.110;2023-06-14T01:59:52;21.67;;;9.10;;
21771;SDS011;11047;47.904;8.110;2023-06-14T02:02:19;18.30;;;9.57;;
21771;SDS011;11047;47.904;8.110;2023-06-14T02:04:46;11.23;;;6.55;;
21771;SDS011;11047;47.904;8.110;2023-06-14T02:07:13;12.30;;;5.88;;
21771;SDS011;11047;47.904;8.110;2023-06-14T02:09:40;10.85;;;5.05;;
21771;SDS011;11047;47.904;8.110;2023-06-14T02:12:08;10.80;;;5.20;;
21771;SDS011;11047;47.904;8.110;2023-06-14T02:14:37;6.53;;;4.30;;
21771;SDS011;11047;47.904;8.110;2023-06-14T02:17:04;7.53;;;4.03;;
21771;SDS011;11047;47.904;8.110;2023-06-14T02:19:31;9.10;;;4.10;;
21771;SDS011;11047;47.904;8.110;2023-06-14T02:21:59;10.10;;;5.25;;
21771;SDS011;11047;47.904;8.110;2023-06-14T02:24:26;12.68;;;6.45;;
21771;SDS011;11047;47.904;8.110;2023-06-14T02:26:53;22.73;;;8.93;;
21771;SDS011;11047;47.904;8.110;2023-06-14T02:29:20;25.85;;;10.80;;
21771;SDS011;11047;47.904;8.110;2023-06-14T02:31:48;16.90;;;8.30;;
21771;SDS011;11047;47.904;8.110;2023-06-14T02:34:15;31.90;;;12.77;;
21771;SDS011;11047;47.904;8.110;2023-06-14T02:36:43;27.30;;;10.30;;
21771;SDS011;11047;47.904;8.110;2023-06-14T02:39:10;23.98;;;10.07;;
21771;SDS011;11047;47.904;8.110;2023-06-14T02:41:37;24.02;;;8.15;;
21771;SDS011;11047;47.904;8.110;2023-06-14T02:44:04;14.00;;;6.57;;
21771;SDS011;11047;47.904;8.110;2023-06-14T02:46:31;17.90;;;7.93;;
21771;SDS011;11047;47.904;8.110;2023-06-14T02:49:00;13.30;;;6.95;;
21771;SDS011;11047;47.904;8.110;2023-06-14T02:51:27;16.10;;;7.97;;
21771;SDS011;11047;47.904;8.110;2023-06-14T02:53:54;17.55;;;8.00;;
21771;SDS011;11047;47.904;8.110;2023-06-14T02:56:21;37.83;;;13.77;;
21771;SDS011;11047;47.904;8.110;2023-06-14T02:58:48;29.10;;;11.45;;
21771;SDS011;11047;47.904;8.110;2023-06-14T03:01:15;31.15;;;12.25;;
21771;SDS011;11047;47.904;8.110;2023-06-14T03:03:43;19.85;;;9.52;;
21771;SDS011;11047;47.904;8.110;2023-06-14T03:06:11;22.77;;;12.35;;
21771;SDS011;11047;47.904;8.110;2023-06-14T03:08:39;28.70;;;13.40;;
21771;SDS011;11047;47.904;8.110;2023-06-14T03:11:06;26.70;;;12.25;;
21771;SDS011;11047;47.904;8.110;2023-06-14T03:13:34;17.65;;;9.23;;
21771;SDS011;11047;47.904;8.110;2023-06-14T03:16:02;17.33;;;8.35;;
21771;SDS011;11047;47.904;8.110;2023-06-14T03:18:29;31.52;;;13.27;;
21771;SDS011;11047;47.904;8.110;2023-06-14T03:21:00;35.25;;;12.48;;
21771;SDS011;11047;47.904;8.110;2023-06-14T03:23:29;23.27;;;11.05;;
21771;SDS011;11047;47.904;8.110;2023-06-14T03:25:56;27.10;;;10.30;;
21771;SDS011;11047;47.904;8.110;2023-06-14T03:28:23;23.85;;;8.95;;
21771;SDS011;11047;47.904;8.110;2023-06-14T03:30:50;23.50;;;10.70;;
21771;SDS011;11047;47.904;8.110;2023-06-14T03:33:17;28.38;;;11.48;;
21771;SDS011;11047;47.904;8.110;2023-06-14T03:35:44;37.15;;;16.20;;
21771;SDS011;11047;47.904;8.110;2023-06-14T03:38:11;31.13;;;13.68;;
21771;SDS011;11047;47.904;8.110;2023-06-14T03:40:40;24.52;;;10.52;;
21771;SDS011;11047;47.904;8.110;2023-06-14T03:43:07;25.73;;;10.13;;
21771;SDS011;11047;47.904;8.110;2023-06-14T03:45:33;23.98;;;10.32;;
21771;SDS011;11047;47.904;8.110;2023-06-14T03:48:00;17.50;;;8.25;;
21771;SDS011;11047;47.904;8.110;2023-06-14T03:50:28;25.52;;;11.13;;
21771;SDS011;11047;47.904;8.110;2023-06-14T03:52:55;13.18;;;6.28;;
21771;SDS011;11047;47.904;8.110;2023-06-14T03:55:22;34.75;;;13.20;;
21771;SDS011;11047;47.904;8.110;2023-06-14T03:57:51;35.13;;;13.77;;
21771;SDS011;11047;47.904;8.110;2023-06-14T04:00:18;54.90;;;19.55;;
21771;SDS011;11047;47.904;8.110;2023-06-14T04:02:46;40.30;;;15.98;;
21771;SDS011;11047;47.904;8.110;2023-06-14T04:05:12;28.30;;;12.02;;
21771;SDS011;11047;47.904;8.110;2023-06-14T04:07:41;29.48;;;11.02;;
21771;SDS011;11047;47.904;8.110;2023-06-14T04:10:10;22.17;;;9.93;;
21771;SDS011;11047;47.904;8.110;2023-06-14T04:12:37;23.27;;;11.40;;
21771;SDS011;11047;47.904;8.110;2023-06-14T04:15:06;22.30;;;10.60;;
21771;SDS011;11047;47.904;8.110;2023-06-14T04:17:34;18.88;;;8.50;;
21771;SDS011;11047;47.904;8.110;2023-06-14T04:20:03;24.48;;;10.65;;
21771;SDS011;11047;47.904;8.110;2023-06-14T04:22:32;40.60;;;17.52;;
21771;SDS011;11047;47.904;8.110;2023-06-14T04:24:59;46.60;;;15.98;;
21771;SDS011;11047;47.904;8.110;2023-06-14T04:27:26;43.50;;;17.08;;
21771;SDS011;11047;47.904;8.110;2023-06-14T04:29:56;36.05;;;14.45;;
21771;SDS011;11047;47.904;8.110;2023-06-14T04:32:26;39.58;;;16.45;;
21771;SDS011;11047;47.904;8.110;2023-06-14T04:34:54;34.05;;;13.50;;
21771;SDS011;11047;47.904;8.110;2023-06-14T04:37:22;29.17;;;11.88;;
21771;SDS011;11047;47.904;8.110;2023-06-14T04:39:49;28.90;;;13.05;;
21771;SDS011;11047;47.904;8.110;2023-06-14T04:42:17;46.60;;;17.75;;
21771;SDS011;11047;47.904;8.110;2023-06-14T04:44:46;35.85;;;14.65;;
21771;SDS011;11047;47.904;8.110;2023-06-14T04:47:13;38.17;;;14.30;;
21771;SDS011;11047;47.904;8.110;2023-06-14T04:49:42;41.63;;;15.60;;
21771;SDS011;11047;47.904;8.110;2023-06-14T04:52:09;41.67;;;16.02;;
21771;SDS011;11047;47.904;8.110;2023-06-14T04:54:38;29.85;;;12.95;;
21771;SDS011;11047;47.904;8.110;2023-06-14T04:57:07;9.80;;;6.50;;
21771;SDS011;11047;47.904;8.110;2023-06-14T04:59:39;23.75;;;9.82;;
21771;SDS011;11047;47.904;8.110;2023-06-14T05:02:06;23.65;;;10.38;;
21771;SDS011;11047;47.904;8.110;2023-06-14T05:04:33;35.53;;;13.88;;
21771;SDS011;11047;47.904;8.110;2023-06-14T05:07:06;33.35;;;14.02;;
21771;SDS011;11047;47.904;8.110;2023-06-14T05:09:33;33.10;;;14.48;;
21771;SDS011;11047;47.904;8.110;2023-06-14T05:12:00;28.77;;;12.45;;
21771;SDS011;11047;47.904;8.110;2023-06-14T05:14:27;27.13;;;11.05;;
21771;SDS011;11047;47.904;8.110;2023-06-14T05:16:54;19.42;;;8.98;;
21771;SDS011;11047;47.904;8.110;2023-06-14T05:19:22;15.98;;;8.10;;
21771;SDS011;11047;47.904;8.110;2023-06-14T05:21:49;14.48;;;7.18;;
21771;SDS011;11047;47.904;8.110;2023-06-14T05:24:17;12.80;;;6.90;;
21771;SDS011;11047;47.904;8.110;2023-06-14T05:26:45;14.38;;;5.55;;
21771;SDS011;11047;47.904;8.110;2023-06-14T05:29:12;7.30;;;4.45;;
21771;SDS011;11047;47.904;8.110;2023-06-14T05:31:39;10.02;;;5.07;;
21771;SDS011;11047;47.904;8.110;2023-06-14T05:34:06;10.00;;;4.70;;
21771;SDS011;11047;47.904;8.110;2023-06-14T05:36:33;9.65;;;5.43;;
21771;SDS011;11047;47.904;8.110;2023-06-14T05:39:02;8.88;;;5.07;;
21771;SDS011;11047;47.904;8.110;2023-06-14T05:41:31;10.80;;;5.68;;
21771;SDS011;11047;47.904;8.110;2023-06-14T05:43:57;10.75;;;6.47;;
21771;SDS011;11047;47.904;8.110;2023-06-14T05:46:25;19.05;;;8.45;;
21771;SDS011;11047;47.904;8.110;2023-06-14T05:48:53;19.40;;;13.13;;
21771;SDS011;11047;47.904;8.110;2023-06-14T05:51:21;25.50;;;15.32;;
21771;SDS011;11047;47.904;8.110;2023-06-14T05:53:50;19.55;;;10.57;;
21771;SDS011;11047;47.904;8.110;2023-06-14T05:56:17;12.43;;;6.40;;
21771;SDS011;11047;47.904;8.110;2023-06-14T05:58:46;8.70;;;5.05;;
21771;SDS011;11047;47.904;8.110;2023-06-14T06:01:13;8.95;;;5.10;;
21771;SDS011;11047;47.904;8.110;2023-06-14T06:03:41;11.02;;;4.82;;
21771;SDS011;11047;47.904;8.110;2023-06-14T06:06:10;10.25;;;5.18;;
21771;SDS011;11047;47.904;8.110;2023-06-14T06:08:37;8.02;;;4.43;;
21771;SDS011;11047;47.904;8.110;2023-06-14T06:11:05;9.10;;;4.03;;
21771;SDS011;11047;47.904;8.110;2023-06-14T06:13:32;8.00;;;4.57;;
21771;SDS011;11047;47.904;8.110;2023-06-14T06:16:01;13.40;;;4.82;;
21771;SDS011;11047;47.904;8.110;2023-06-14T06:18:28;8.40;;;4.55;;
21771;SDS011;11047;47.904;8.110;2023-06-14T06:20:55;5.18;;;3.70;;
21771;SDS011;11047;47.904;8.110;2023-06-14T06:23:22;9.43;;;4.53;;
21771;SDS011;11047;47.904;8.110;2023-06-14T06:25:49;8.57;;;4.13;;
21771;SDS011;11047;47.904;8.110;2023-06-14T06:28:17;5.68;;;3.53;;
21771;SDS011;11047;47.904;8.110;2023-06-14T06:30:43;6.70;;;3.92;;
21771;SDS011;11047;47.904;8.110;2023-06-14T06:33:12;9.05;;;3.72;;
21771;SDS011;11047;47.904;8.110;2023-06-14T06:35:39;6.90;;;3.78;;
21771;SDS011;11047;47.904;8.110;2023-06-14T06:38:06;4.95;;;3.33;;
21771;SDS011;11047;47.904;8.110;2023-06-14T06:40:34;5.10;;;3.30;;
21771;SDS011;11047;47.904;8.110;2023-06-14T06:43:01;5.50;;;3.65;;
21771;SDS011;11047;47.904;8.110;2023-06-14T06:45:28;7.43;;;3.00;;
21771;SDS011;11047;47.904;8.110;2023-06-14T06:47:55;7.25;;;3.10;;
21771;SDS011;11047;47.904;8.110;2023-06-14T06:50:24;3.40;;;2.40;;
21771;SDS011;11047;47.904;8.110;2023-06-14T06:52:51;4.20;;;2.53;;
21771;SDS011;11047;47.904;8.110;2023-06-14T06:55:18;4.15;;;2.53;;
21771;SDS011;11047;47.904;8.110;2023-06-14T06:57:45;4.93;;;2.70;;
21771;SDS011;11047;47.904;8.110;2023-06-14T07:00:12;4.68;;;2.45;;
21771;SDS011;11047;47.904;8.110;2023-06-14T07:02:39;6.47;;;2.42;;
21771;SDS011;11047;47.904;8.110;2023-06-14T07:05:06;7.63;;;2.42;;
21771;SDS011;11047;47.904;8.110;2023-06-14T07:07:35;4.53;;;2.60;;
21771;SDS011;11047;47.904;8.110;2023-06-14T07:10:02;9.45;;;2.78;;
21771;SDS011;11047;47.904;8.110;2023-06-14T07:12:30;4.25;;;2.67;;
21771;SDS011;11047;47.904;8.110;2023-06-14T07:14:58;5.00;;;2.95;;
21771;SDS011;11047;47.904;8.110;2023-06-14T07:17:26;5.55;;;2.40;;
21771;SDS011;11047;47.904;8.110;2023-06-14T07:19:53;3.70;;;2.60;;
21771;SDS011;11047;47.904;8.110;2023-06-14T07:22:19;4.15;;;3.22;;
21771;SDS011;11047;47.904;8.110;2023-06-14T07:24:48;6.80;;;2.30;;
21771;SDS011;11047;47.904;8.110;2023-06-14T07:27:15;6.93;;;2.50;;
21771;SDS011;11047;47.904;8.110;2023-06-14T07:29:42;5.60;;;2.60;;
21771;SDS011;11047;47.904;8.110;2023-06-14T07:32:11;3.00;;;2.00;;
21771;SDS011;11047;47.904;8.110;2023-06-14T07:34:38;4.30;;;2.50;;
21771;SDS011;11047;47.904;8.110;2023-06-14T07:37:05;4.15;;;2.63;;
21771;SDS011;11047;47.904;8.110;2023-06-14T07:39:32;4.78;;;2.60;;
21771;SDS011;11047;47.904;8.110;2023-06-14T07:42:00;4.00;;;2.63;;
21771;SDS011;11047;47.904;8.110;2023-06-14T07:44:29;2.70;;;2.30;;
21771;SDS011;11047;47.904;8.110;2023-06-14T07:46:56;4.28;;;2.55;;
21771;SDS011;11047;47.904;8.110;2023-06-14T07:49:25;3.88;;;2.80;;
21771;SDS011;11047;47.904;8.110;2023-06-14T07:51:51;4.05;;;3.10;;
21771;SDS011;11047;47.904;8.110;2023-06-14T07:54:18;3.25;;;2.50;;
21771;SDS011;11047;47.904;8.110;2023-06-14T07:56:49;5.85;;;2.88;;
21771;SDS011;11047;47.904;8.110;2023-06-14T07:59:18;3.75;;;2.38;;
21771;SDS011;11047;47.904;8.110;2023-06-14T08:01:45;6.88;;;2.53;;
21771;SDS011;11047;47.904;8.110;2023-06-14T08:04:12;6.93;;;3.22;;
21771;SDS011;11047;47.904;8.110;2023-06-14T08:06:39;40.00;;;4.30;;
21771;SDS011;11047;47.904;8.110;2023-06-14T08:09:10;6.65;;;2.78;;
21771;SDS011;11047;47.904;8.110;2023-06-14T08:11:37;4.38;;;2.60;;
21771;SDS011;11047;47.904;8.110;2023-06-14T08:14:04;7.47;;;2.42;;
21771;SDS011;11047;47.904;8.110;2023-06-14T08:16:32;6.80;;;2.92;;
21771;SDS011;11047;47.904;8.110;2023-06-14T08:18:59;3.25;;;2.95;;
21771;SDS011;11047;47.904;8.110;2023-06-14T08:21:27;3.60;;;2.80;;
21771;SDS011;11047;47.904;8.110;2023-06-14T08:23:54;5.63;;;2.70;;
21771;SDS011;11047;47.904;8.110;2023-06-14T08:26:21;6.72;;;2.88;;
21771;SDS011;11047;47.904;8.110;2023-06-14T08:28:48;2.83;;;2.50;;
21771;SDS011;11047;47.904;8.110;2023-06-14T08:31:15;4.40;;;2.83;;
21771;SDS011;11047;47.904;8.110;2023-06-14T08:33:43;3.38;;;2.83;;
21771;SDS011;11047;47.904;8.110;2023-06-14T08:36:10;3.33;;;2.90;;
21771;SDS011;11047;47.904;8.110;2023-06-14T08:38:38;3.53;;;2.70;;
21771;SDS011;11047;47.904;8.110;2023-06-14T08:41:05;6.35;;;2.78;;
21771;SDS011;11047;47.904;8.110;2023-06-14T08:43:32;4.43;;;2.88;;
21771;SDS011;11047;47.904;8.110;2023-06-14T08:46:00;5.25;;;2.72;;
21771;SDS011;11047;47.904;8.110;2023-06-14T08:48:29;3.40;;;3.08;;
21771;SDS011;11047;47.904;8.110;2023-06-14T08:51:00;4.80;;;2.78;;
21771;SDS011;11047;47.904;8.110;2023-06-14T08:56:50;3.83;;;2.60;;
21771;SDS011;11047;47.904;8.110;2023-06-14T08:59:18;5.90;;;2.70;;
21771;SDS011;11047;47.904;8.110;2023-06-14T09:01:46;6.82;;;2.88;;
21771;SDS011;11047;47.904;8.110;2023-06-14T09:04:14;4.63;;;3.00;;
21771;SDS011;11047;47.904;8.110;2023-06-14T09:06:44;6.28;;;3.47;;
21771;SDS011;11047;47.904;8.110;2023-06-14T09:09:11;7.53;;;3.33;;
21771;SDS011;11047;47.904;8.110;2023-06-14T09:11:41;6.05;;;2.92;;
21771;SDS011;11047;47.904;8.110;2023-06-14T09:14:08;5.32;;;3.80;;
21771;SDS011;11047;47.904;8.110;2023-06-14T09:16:36;4.82;;;3.35;;
21771;SDS011;11047;47.904;8.110;2023-06-14T09:19:03;3.53;;;2.80;;
21771;SDS011;11047;47.904;8.110;2023-06-14T09:21:31;5.72;;;2.90;;
21771;SDS011;11047;47.904;8.110;2023-06-14T09:24:02;6.10;;;3.17;;
21771;SDS011;11047;47.904;8.110;2023-06-14T09:26:31;4.22;;;3.15;;
21771;SDS011;11047;47.904;8.110;2023-06-14T09:28:58;6.47;;;3.10;;
21771;SDS011;11047;47.904;8.110;2023-06-14T09:31:25;3.22;;;2.80;;
21771;SDS011;11047;47.904;8.110;2023-06-14T09:33:56;5.93;;;2.92;;
21771;SDS011;11047;47.904;8.110;2023-06-14T09:36:24;6.95;;;3.20;;
21771;SDS011;11047;47.904;8.110;2023-06-14T09:38:52;4.68;;;3.00;;
21771;SDS011;11047;47.904;8.110;2023-06-14T09:41:21;4.90;;;2.78;;
21771;SDS011;11047;47.904;8.110;2023-06-14T09:43:58;6.75;;;3.05;;
21771;SDS011;11047;47.904;8.110;2023-06-14T09:46:27;7.20;;;3.22;;
21771;SDS011;11047;47.904;8.110;2023-06-14T09:48:54;3.75;;;3.20;;
21771;SDS011;11047;47.904;8.110;2023-06-14T09:51:21;9.02;;;3.42;;
21771;SDS011;11047;47.904;8.110;2023-06-14T09:53:49;5.20;;;3.35;;
21771;SDS011;11047;47.904;8.110;2023-06-14T09:56:18;5.95;;;3.22;;
21771;SDS011;11047;47.904;8.110;2023-06-14T09:58:55;3.47;;;3.17;;
21771;SDS011;11047;47.904;8.110;2023-06-14T10:01:23;8.50;;;3.05;;
21771;SDS011;11047;47.904;8.110;2023-06-14T10:03:52;3.33;;;2.90;;
21771;SDS011;11047;47.904;8.110;2023-06-14T10:06:23;3.90;;;2.65;;
21771;SDS011;11047;47.904;8.110;2023-06-14T10:08:52;3.88;;;2.90;;
21771;SDS011;11047;47.904;8.110;2023-06-14T10:11:23;8.05;;;2.75;;
21771;SDS011;11047;47.904;8.110;2023-06-14T10:13:53;4.55;;;3.00;;
21771;SDS011;11047;47.904;8.110;2023-06-14T10:16:23;6.43;;;3.50;;
21771;SDS011;11047;47.904;8.110;2023-06-14T10:18:59;4.18;;;2.75;;
21771;SDS011;11047;47.904;8.110;2023-06-14T10:21:37;5.38;;;3.05;;
21771;SDS011;11047;47.904;8.110;2023-06-14T10:24:15;4.65;;;2.65;;
21771;SDS011;11047;47.904;8.110;2023-06-14T10:26:51;4.90;;;3.45;;
21771;SDS011;11047;47.904;8.110;2023-06-14T10:29:20;4.22;;;3.28;;
21771;SDS011;11047;47.904;8.110;2023-06-14T10:31:48;6.95;;;2.92;;
21771;SDS011;11047;47.904;8.110;2023-06-14T10:34:23;3.78;;;3.20;;
21771;SDS011;11047;47.904;8.110;2023-06-14T10:37:03;4.85;;;2.78;;
21771;SDS011;11047;47.904;8.110;2023-06-14T10:39:32;4.65;;;3.00;;
21771;SDS011;11047;47.904;8.110;2023-06-14T10:42:05;4.35;;;2.78;;
21771;SDS011;11047;47.904;8.110;2023-06-14T10:44:42;5.50;;;3.15;;
21771;SDS011;11047;47.904;8.110;2023-06-14T10:47:20;3.50;;;3.20;;
21771;SDS011;11047;47.904;8.110;2023-06-14T10:49:54;6.20;;;3.33;;
21771;SDS011;11047;47.904;8.110;2023-06-14T10:52:25;4.15;;;3.00;;
21771;SDS011;11047;47.904;8.110;2023-06-14T10:55:07;7.55;;;3.28;;
21771;SDS011;11047;47.904;8.110;2023-06-14T10:57:41;7.13;;;3.30;;
21771;SDS011;11047;47.904;8.110;2023-06-14T11:00:10;3.97;;;2.88;;
21771;SDS011;11047;47.904;8.110;2023-06-14T11:05:58;7.68;;;3.25;;
21771;SDS011;11047;47.904;8.110;2023-06-14T11:11:23;4.53;;;3.10;;
21771;SDS011;11047;47.904;8.110;2023-06-14T11:13:53;3.15;;;2.85;;
21771;SDS011;11047;47.904;8.110;2023-06-14T11:16:19;4.00;;;3.00;;
21771;SDS011;11047;47.904;8.110;2023-06-14T11:18:46;5.00;;;2.92;;
21771;SDS011;11047;47.904;8.110;2023-06-14T11:21:15;5.70;;;3.47;;
21771;SDS011;11047;47.904;8.110;2023-06-14T11:23:48;6.68;;;2.95;;
21771;SDS011;11047;47.904;8.110;2023-06-14T11:26:16;6.22;;;3.40;;
21771;SDS011;11047;47.904;8.110;2023-06-14T11:28:50;3.20;;;2.88;;
21771;SDS011;11047;47.904;8.110;2023-06-14T11:31:23;5.93;;;2.90;;
21771;SDS011;11047;47.904;8.110;2023-06-14T11:33:50;10.50;;;2.95;;
21771;SDS011;11047;47.904;8.110;2023-06-14T11:36:19;3.92;;;3.22;;
21771;SDS011;11047;47.904;8.110;2023-06-14T11:38:46;4.65;;;3.03;;
21771;SDS011;11047;47.904;8.110;2023-06-14T11:41:13;4.82;;;3.40;;
21771;SDS011;11047;47.904;8.110;2023-06-14T11:43:40;3.65;;;2.95;;
21771;SDS011;11047;47.904;8.110;2023-06-14T11:46:13;4.10;;;2.75;;
21771;SDS011;11047;47.904;8.110;2023-06-14T11:48:43;5.13;;;3.40;;
21771;SDS011;11047;47.904;8.110;2023-06-14T11:51:10;3.60;;;3.05;;
21771;SDS011;11047;47.904;8.110;2023-06-14T11:53:37;3.10;;;2.80;;
21771;SDS011;11047;47.904;8.110;2023-06-14T11:56:04;6.70;;;3.08;;
21771;SDS011;11047;47.904;8.110;2023-06-14T11:58:31;5.65;;;3.03;;
21771;SDS011;11047;47.904;8.110;2023-06-14T12:00:58;6.03;;;3.17;;
21771;SDS011;11047;47.904;8.110;2023-06-14T12:03:27;4.80;;;2.95;;
21771;SDS011;11047;47.904;8.110;2023-06-14T12:06:04;7.45;;;3.40;;
21771;SDS011;11047;47.904;8.110;2023-06-14T12:08:33;4.43;;;2.97;;
21771;SDS011;11047;47.904;8.110;2023-06-14T12:11:05;3.45;;;2.88;;
21771;SDS011;11047;47.904;8.110;2023-06-14T12:13:33;4.05;;;2.55;;
21771;SDS011;11047;47.904;8.110;2023-06-14T12:16:01;6.43;;;3.25;;
21771;SDS011;11047;47.904;8.110;2023-06-14T12:18:34;5.25;;;3.00;;
21771;SDS011;11047;47.904;8.110;2023-06-14T12:21:02;3.65;;;3.05;;
21771;SDS011;11047;47.904;8.110;2023-06-14T12:23:44;6.60;;;2.92;;
21771;SDS011;11047;47.904;8.110;2023-06-14T12:26:12;4.57;;;2.92;;
21771;SDS011;11047;47.904;8.110;2023-06-14T12:28:40;6.95;;;3.28;;
21771;SDS011;11047;47.904;8.110;2023-06-14T12:31:08;4.85;;;3.22;;
21771;SDS011;11047;47.904;8.110;2023-06-14T12:33:36;3.25;;;3.00;;
21771;SDS011;11047;47.904;8.110;2023-06-14T12:36:04;3.90;;;2.55;;
21771;SDS011;11047;47.904;8.110;2023-06-14T12:38:32;4.20;;;3.28;;
21771;SDS011;11047;47.904;8.110;2023-06-14T12:40:58;5.15;;;3.15;;
21771;SDS011;11047;47.904;8.110;2023-06-14T12:43:26;6.05;;;3.10;;
21771;SDS011;11047;47.904;8.110;2023-06-14T12:45:52;6.40;;;3.15;;
21771;SDS011;11047;47.904;8.110;2023-06-14T12:48:19;3.25;;;2.63;;
21771;SDS011;11047;47.904;8.110;2023-06-14T12:50:48;4.03;;;3.45;;
21771;SDS011;11047;47.904;8.110;2023-06-14T12:53:15;3.58;;;3.05;;
21771;SDS011;11047;47.904;8.110;2023-06-14T12:55:42;6.68;;;2.58;;
21771;SDS011;11047;47.904;8.110;2023-06-14T12:58:09;4.43;;;3.28;;
21771;SDS011;11047;47.904;8.110;2023-06-14T13:00:37;4.53;;;2.85;;
21771;SDS011;11047;47.904;8.110;2023-06-14T13:03:04;3.53;;;3.08;;
21771;SDS011;11047;47.904;8.110;2023-06-14T13:05:31;2.95;;;2.75;;
21771;SDS011;11047;47.904;8.110;2023-06-14T13:07:59;3.10;;;2.80;;
21771;SDS011;11047;47.904;8.110;2023-06-14T13:10:26;6.03;;;3.05;;
21771;SDS011;11047;47.904;8.110;2023-06-14T13:12:53;5.20;;;2.88;;
21771;SDS011;11047;47.904;8.110;2023-06-14T13:15:23;3.47;;;3.17;;
21771;SDS011;11047;47.904;8.110;2023-06-14T13:17:50;5.10;;;3.13;;
21771;SDS011;11047;47.904;8.110;2023-06-14T13:20:17;6.47;;;3.13;;
21771;SDS011;11047;47.904;8.110;2023-06-14T13:22:43;5.82;;;3.28;;
21771;SDS011;11047;47.904;8.110;2023-06-14T13:25:12;4.05;;;3.55;;
21771;SDS011;11047;47.904;8.110;2023-06-14T13:27:39;6.68;;;3.17;;
21771;SDS011;11047;47.904;8.110;2023-06-14T13:30:06;4.35;;;3.33;;
21771;SDS011;11047;47.904;8.110;2023-06-14T13:32:34;7.07;;;2.88;;
21771;SDS011;11047;47.904;8.110;2023-06-14T13:35:01;4.35;;;3.05;;
21771;SDS011;11047;47.904;8.110;2023-06-14T13:37:29;5.00;;;3.00;;
21771;SDS011;11047;47.904;8.110;2023-06-14T13:39:56;4.38;;;3.00;;
21771;SDS011;11047;47.904;8.110;2023-06-14T13:42:25;6.80;;;3.95;;
21771;SDS011;11047;47.904;8.110;2023-06-14T13:44:52;5.35;;;3.15;;
21771;SDS011;11047;47.904;8.110;2023-06-14T13:47:19;4.53;;;3.28;;
21771;SDS011;11047;47.904;8.110;2023-06-14T13:49:52;6.22;;;2.70;;
21771;SDS011;11047;47.904;8.110;2023-06-14T13:54:49;4.15;;;2.92;;
21771;SDS011;11047;47.904;8.110;2023-06-14T14:00:08;7.68;;;3.40;;
21771;SDS011;11047;47.904;8.110;2023-06-14T14:02:36;5.00;;;3.00;;
21771;SDS011;11047;47.904;8.110;2023-06-14T14:05:03;4.15;;;2.90;;
21771;SDS011;11047;47.904;8.110;2023-06-14T14:07:34;4.45;;;3.72;;
21771;SDS011;11047;47.904;8.110;2023-06-14T14:10:03;3.20;;;2.90;;
21771;SDS011;11047;47.904;8.110;2023-06-14T14:12:31;5.30;;;3.03;;
21771;SDS011;11047;47.904;8.110;2023-06-14T14:15:05;3.40;;;2.88;;
21771;SDS011;11047;47.904;8.110;2023-06-14T14:17:45;9.65;;;3.22;;
21771;SDS011;11047;47.904;8.110;2023-06-14T14:20:13;5.43;;;3.10;;
21771;SDS011;11047;47.904;8.110;2023-06-14T14:22:40;4.00;;;3.05;;
21771;SDS011;11047;47.904;8.110;2023-06-14T14:25:08;3.50;;;3.00;;
21771;SDS011;11047;47.904;8.110;2023-06-14T14:27:35;4.28;;;2.78;;
21771;SDS011;11047;47.904;8.110;2023-06-14T14:32:41;5.95;;;2.70;;
21771;SDS011;11047;47.904;8.110;2023-06-14T14:35:09;6.97;;;3.03;;
21771;SDS011;11047;47.904;8.110;2023-06-14T14:37:37;6.03;;;3.75;;
21771;SDS011;11047;47.904;8.110;2023-06-14T14:40:04;5.28;;;3.10;;
21771;SDS011;11047;47.904;8.110;2023-06-14T14:42:34;3.45;;;2.90;;
21771;SDS011;11047;47.904;8.110;2023-06-14T14:45:00;3.20;;;2.90;;
21771;SDS011;11047;47.904;8.110;2023-06-14T14:47:29;13.95;;;3.90;;
21771;SDS011;11047;47.904;8.110;2023-06-14T14:49:56;4.65;;;3.17;;
21771;SDS011;11047;47.904;8.110;2023-06-14T14:52:23;8.10;;;3.25;;
21771;SDS011;11047;47.904;8.110;2023-06-14T14:54:51;7.72;;;3.50;;
21771;SDS011;11047;47.904;8.110;2023-06-14T14:57:19;5.15;;;3.10;;
21771;SDS011;11047;47.904;8.110;2023-06-14T14:59:45;5.88;;;3.45;;
21771;SDS011;11047;47.904;8.110;2023-06-14T15:02:12;4.80;;;3.10;;
21771;SDS011;11047;47.904;8.110;2023-06-14T15:04:41;4.80;;;3.10;;